Arsos M — V7IR2 — position and weather

sailwx.info

Track history (hours):
 
Tides and Currents Weather Stations Pressure Air Temp Water Temp Dewpoint Dewpoint Depression Visibility Wind Speed Wind Dir Waves Ship Positions

Arsos M

Last reported at 2018-May-28 16:06 UTC. Time now 2018-Jun-22 15:25 UTC.
Position N 31°23' E 032°19'.
Warning: this ship's position is 24 days out of date.

Length 180 m; draft 10.7 m.

Type: Ship. MMSI: 538007316.

Date/timePositionNaut miles runAvg speedWind from/ knotsBaromVisibWave heightAir tempDewpointWater temp
2018-May-28 16:06N 31°23' E 032°19'0 0.5
2018-May-28 16:00N 31°23' E 032°19'2 3.7
2018-May-28 15:30N 31°24' E 032°18'  
2018-May-25 10:39N 35°50' E 015°05'212.0
2018-May-25 10:28N 35°50' E 015°02'611.8
2018-May-25 10:00N 35°52' E 014°56'510.4
2018-May-25 09:30N 35°53' E 014°50'2 4.7
2018-May-25 09:00N 35°55' E 014°47'0 0.0
2018-May-25 08:30N 35°55' E 014°47'0 0.1
2018-May-25 08:00N 35°55' E 014°47'0 0.0
2018-May-25 07:30N 35°55' E 014°47'0 0.0
2018-May-25 07:00N 35°55' E 014°47'0 0.0
2018-May-25 06:30N 35°55' E 014°47'0 0.1
2018-May-25 05:59N 35°55' E 014°47'0 0.0
2018-May-25 05:30N 35°55' E 014°47'0 0.0
2018-May-25 05:00N 35°55' E 014°47'0 0.1
2018-May-25 04:31N 35°55' E 014°47'0 0.1
2018-May-25 04:01N 35°55' E 014°47'0 0.0
2018-May-25 03:30N 35°55' E 014°47'0 0.1
2018-May-25 03:00N 35°55' E 014°47'0 0.1
2018-May-25 02:30N 35°55' E 014°47'0 0.1
2018-May-25 02:00N 35°55' E 014°47'3 6.1
2018-May-25 01:30N 35°58' E 014°47'3 6.4
2018-May-25 01:00N 36°01' E 014°46'1 1.5
2018-May-25 00:30N 36°01' E 014°47'0 1.0
2018-May-25 00:01N 36°00' E 014°47'0 0.8
2018-May-24 23:30N 35°60' E 014°47'1 1.3
2018-May-24 23:00N 35°59' E 014°47'1 1.7
2018-May-24 22:31N 35°59' E 014°46'0 0.5
2018-May-24 21:49N 35°59' E 014°46'0 0.4
2018-May-24 21:31N 35°59' E 014°46'0 0.4
2018-May-24 21:00N 35°59' E 014°47'0 0.5
2018-May-24 20:30N 35°60' E 014°47'0 0.5
2018-May-24 20:01N 35°60' E 014°47'0 0.5
2018-May-24 19:30N 36°00' E 014°47'0 0.5
2018-May-24 19:00N 36°00' E 014°47'0 0.5
2018-May-24 18:30N 36°01' E 014°47'0 0.5
2018-May-24 18:00N 36°01' E 014°47'0 0.3
2018-May-24 17:29N 36°01' E 014°48'0 0.7
2018-May-24 16:52N 36°01' E 014°48'1 2.6
2018-May-24 16:30N 36°00' E 014°49'1 1.3
2018-May-24 15:29N 35°59' E 014°49'0 0.4
2018-May-24 14:49N 35°59' E 014°49'0 0.4
2018-May-24 14:30N 35°60' E 014°49'0 0.3
2018-May-24 14:00N 35°60' E 014°49'0 0.3
2018-May-24 13:30N 35°60' E 014°49'4 0.8
2018-May-24 08:46N 36°02' E 014°53'0 0.5
2018-May-24 08:28N 36°02' E 014°53'2 0.3
2018-May-24 03:18N 36°02' E 014°51'0 0.3
2018-May-24 03:00N 36°02' E 014°51'0 0.3
2018-May-24 02:30N 36°02' E 014°51'3 0.6
2018-May-23 22:00N 36°05' E 014°49'1 2.7
2018-May-23 21:30N 36°06' E 014°48'3 5.9
2018-May-23 21:00N 36°08' E 014°47'3 5.6
2018-May-23 20:30N 36°11' E 014°46'1 2.0
2018-May-23 19:46N 36°11' E 014°44'1 3.3
2018-May-23 19:31N 36°10' E 014°44'2 4.4
2018-May-23 19:00N 36°08' E 014°44'2 4.3
2018-May-23 18:30N 36°06' E 014°45'2 4.4
2018-May-23 18:00N 36°04' E 014°46'3 6.1
2018-May-23 17:30N 36°01' E 014°46'3 6.6
2018-May-23 17:01N 35°58' E 014°44'4 5.6
2018-May-23 16:19N 35°54' E 014°41'0 0.5
2018-May-23 15:46N 35°54' E 014°41'1 1.1
2018-May-23 14:58N 35°55' E 014°40'1 2.1
2018-May-23 14:21N 35°56' E 014°40'2 6.3
2018-May-23 13:59N 35°57' E 014°42'43811.7
2018-May-22 00:25N 37°11' E 023°39'512.8
2018-May-22 00:00N 37°16' E 023°42'612.9
2018-May-21 23:31N 37°22' E 023°44'612.9
2018-May-21 23:01N 37°29' E 023°44'612.5
2018-May-21 22:31N 37°35' E 023°44'612.1
2018-May-21 22:01N 37°41' E 023°42'612.4
2018-May-21 21:31N 37°46' E 023°38'611.0
2018-May-21 21:01N 37°50' E 023°33'2 3.8
2018-May-21 20:30N 37°50' E 023°31'0 0.1
2018-May-21 20:00N 37°50' E 023°31'0 0.0
2018-May-21 19:30N 37°50' E 023°31'0 0.0
2018-May-21 19:00N 37°50' E 023°31'0 0.0
2018-May-21 18:30N 37°50' E 023°31'0 0.0
2018-May-21 18:00N 37°50' E 023°31'0 0.0
2018-May-21 17:30N 37°50' E 023°31'0 0.2
2018-May-21 16:57N 37°51' E 023°31'0 0.1
2018-May-21 16:30N 37°51' E 023°31'0 0.0
2018-May-21 16:00N 37°51' E 023°31'0 0.1
2018-May-21 15:27N 37°51' E 023°31'0 0.0
2018-May-21 15:00N 37°51' E 023°31'0 0.1
2018-May-21 14:30N 37°51' E 023°31'0 0.0
2018-May-21 14:00N 37°51' E 023°31'0 0.0
2018-May-21 13:30N 37°51' E 023°31'0 0.0
2018-May-21 13:00N 37°51' E 023°31'0 0.0
2018-May-21 12:30N 37°51' E 023°31'0 0.0
2018-May-21 12:00N 37°51' E 023°31'0 0.1
2018-May-21 11:30N 37°51' E 023°31'0 0.1
2018-May-21 11:00N 37°51' E 023°31'0 0.0
2018-May-21 10:30N 37°51' E 023°31'0 0.0
2018-May-21 10:00N 37°51' E 023°31'0 0.1
2018-May-21 09:30N 37°51' E 023°31'0 0.0
2018-May-21 09:00N 37°51' E 023°31'0 0.1
2018-May-21 08:30N 37°51' E 023°31'0 0.2
2018-May-21 08:00N 37°51' E 023°31'0 0.1
2018-May-21 07:30N 37°51' E 023°31'0 0.0
2018-May-21 05:00N 37°50' E 023°31'0 0.0
2018-May-21 04:30N 37°50' E 023°31'0 0.0
2018-May-21 04:00N 37°50' E 023°31'0 0.0
2018-May-21 03:30N 37°50' E 023°31'0 0.0
2018-May-21 03:00N 37°50' E 023°31'0 0.0
2018-May-21 02:30N 37°50' E 023°31'0 0.0
2018-May-21 02:00N 37°50' E 023°31'0 0.0
2018-May-21 01:30N 37°50' E 023°31'0 0.0
2018-May-21 01:00N 37°50' E 023°31'0 0.0
2018-May-21 00:30N 37°50' E 023°31'0 0.0
2018-May-21 00:00N 37°50' E 023°31'0 0.0
2018-May-20 23:30N 37°50' E 023°31'0 0.0
2018-May-20 23:00N 37°50' E 023°31'0 0.1
2018-May-20 22:30N 37°51' E 023°31'0 0.1
2018-May-20 22:00N 37°51' E 023°31'0 0.0
2018-May-20 21:30N 37°51' E 023°31'0 0.0
2018-May-20 21:00N 37°51' E 023°31'0 0.1
2018-May-20 20:30N 37°50' E 023°31'0 0.1
2018-May-20 20:00N 37°50' E 023°31'0 0.0
2018-May-20 19:30N 37°51' E 023°31'0 0.0
2018-May-20 19:00N 37°50' E 023°31'0 0.1
2018-May-20 18:30N 37°50' E 023°31'0 0.4
2018-May-20 18:00N 37°51' E 023°31'0 0.0
2018-May-20 17:30N 37°51' E 023°31'0 0.1
2018-May-20 17:00N 37°51' E 023°31'0 0.1
2018-May-20 16:30N 37°51' E 023°31'0 0.1
2018-May-20 16:00N 37°51' E 023°31'0 0.1
2018-May-20 15:30N 37°51' E 023°31'0 0.1
2018-May-20 15:00N 37°51' E 023°31'0 0.1
2018-May-20 14:30N 37°51' E 023°31'0 0.0
2018-May-20 14:00N 37°51' E 023°31'0 0.1
2018-May-20 13:30N 37°51' E 023°31'0 0.1
2018-May-20 13:00N 37°51' E 023°31'0 0.0
2018-May-20 12:30N 37°51' E 023°31'0 0.0
2018-May-20 12:00N 37°51' E 023°31'0 0.1
2018-May-20 11:30N 37°51' E 023°31'0 0.1
2018-May-20 11:00N 37°51' E 023°31'0 0.0
2018-May-20 10:30N 37°51' E 023°31'0 0.0
2018-May-20 10:00N 37°51' E 023°31'0 0.0
2018-May-20 09:30N 37°51' E 023°31'0 0.0
2018-May-20 09:00N 37°51' E 023°31'0 0.0
2018-May-20 08:30N 37°51' E 023°31'0 0.0
2018-May-20 08:00N 37°51' E 023°31'0 0.0
2018-May-20 07:30N 37°51' E 023°31'0 0.0
2018-May-20 07:00N 37°51' E 023°31'0 0.1
2018-May-20 06:30N 37°51' E 023°31'0 0.1
2018-May-20 06:00N 37°51' E 023°31'0 0.0
2018-May-20 05:30N 37°51' E 023°31'0 0.0
2018-May-20 05:00N 37°51' E 023°31'0 0.0
2018-May-20 04:30N 37°51' E 023°31'0 0.1
2018-May-20 04:00N 37°51' E 023°31'0 0.1
2018-May-20 03:30N 37°51' E 023°31'0 0.1
2018-May-20 03:00N 37°51' E 023°31'0 0.0
2018-May-20 02:30N 37°51' E 023°31'0 0.0
2018-May-20 02:00N 37°51' E 023°31'0 0.0
2018-May-20 01:30N 37°51' E 023°31'0 0.1
2018-May-20 01:00N 37°51' E 023°31'0 0.1
2018-May-20 00:30N 37°51' E 023°31'0 0.0
2018-May-20 00:00N 37°51' E 023°31'0 0.1
2018-May-19 23:30N 37°51' E 023°31'0 0.0
2018-May-19 23:00N 37°51' E 023°31'0 0.0
2018-May-19 22:30N 37°51' E 023°31'0 0.1
2018-May-19 22:00N 37°51' E 023°31'0 0.1
2018-May-19 21:30N 37°51' E 023°31'0 0.1
2018-May-19 21:00N 37°51' E 023°31'0 0.1
2018-May-19 20:30N 37°51' E 023°31'0 0.1
2018-May-19 20:00N 37°51' E 023°31'0 0.0
2018-May-19 19:30N 37°51' E 023°31'0 0.0
2018-May-19 19:00N 37°51' E 023°31'0 0.0
2018-May-19 18:30N 37°51' E 023°31'0 0.0
2018-May-19 18:00N 37°51' E 023°31'0 0.1
2018-May-19 17:30N 37°51' E 023°31'0 0.0
2018-May-19 17:00N 37°51' E 023°31'0 0.0
2018-May-19 16:30N 37°51' E 023°31'0 0.1
2018-May-19 16:00N 37°51' E 023°31'0 0.1
2018-May-19 15:30N 37°51' E 023°31'0 0.0
2018-May-19 15:00N 37°51' E 023°31'0 0.0
2018-May-19 14:30N 37°51' E 023°31'0 0.0
2018-May-19 14:00N 37°51' E 023°31'0 0.0
2018-May-19 13:30N 37°51' E 023°31'0 0.1
2018-May-19 13:00N 37°51' E 023°31'0 0.0
2018-May-19 12:30N 37°51' E 023°31'0 0.0
2018-May-19 12:00N 37°51' E 023°31'0 0.0
2018-May-19 11:30N 37°51' E 023°31'0 0.0
2018-May-19 11:00N 37°51' E 023°31'0 0.0
2018-May-19 10:30N 37°51' E 023°31'0 0.0
2018-May-19 10:00N 37°51' E 023°31'0 0.0
2018-May-19 09:30N 37°51' E 023°31'0 0.0
2018-May-19 09:00N 37°51' E 023°31'0 0.0
2018-May-19 08:30N 37°51' E 023°31'0 0.0
2018-May-19 08:00N 37°51' E 023°31'0 0.0
2018-May-19 07:30N 37°51' E 023°31'0 0.1
2018-May-19 07:00N 37°51' E 023°31'0 0.0
2018-May-19 06:30N 37°51' E 023°31'0 0.0
2018-May-19 06:00N 37°51' E 023°31'0 0.0
2018-May-19 05:30N 37°51' E 023°31'0 0.1
2018-May-19 05:00N 37°51' E 023°31'0 0.0
2018-May-19 04:27N 37°51' E 023°31'0 0.0
2018-May-19 04:00N 37°51' E 023°31'0 0.0
2018-May-19 03:30N 37°51' E 023°31'0 0.0
2018-May-19 03:00N 37°51' E 023°31'0 0.0
2018-May-19 02:30N 37°51' E 023°31'0 0.0
2018-May-19 02:00N 37°51' E 023°31'0 0.0
2018-May-19 01:30N 37°51' E 023°31'0 0.0
2018-May-19 01:00N 37°51' E 023°31'0 0.0
2018-May-19 00:30N 37°51' E 023°31'0 0.0
2018-May-19 00:00N 37°51' E 023°31'0 0.0
2018-May-18 23:30N 37°51' E 023°31'0 0.0
2018-May-18 23:00N 37°51' E 023°31'0 0.0
2018-May-18 22:30N 37°51' E 023°31'0 0.1
2018-May-18 22:00N 37°51' E 023°31'1 1.3
2018-May-18 21:30N 37°51' E 023°30'2 4.4
2018-May-18 21:00N 37°51' E 023°27'4 8.9
2018-May-18 20:30N 37°53' E 023°22'4 8.6
2018-May-18 20:00N 37°57' E 023°23'1 2.4
2018-May-18 19:28N 37°58' E 023°23'0 0.0
2018-May-18 18:58N 37°58' E 023°23'0 0.0
2018-May-18 18:28N 37°58' E 023°23'0 0.0
2018-May-18 17:58N 37°58' E 023°23'0 0.0
2018-May-18 17:28N 37°58' E 023°23'0 0.0
2018-May-18 16:58N 37°58' E 023°23'0 0.0
2018-May-18 16:25N 37°58' E 023°23'  
Track history (hours):
 
Tides and Currents Weather Stations Pressure Air Temp Water Temp Dewpoint Dewpoint Depression Visibility Wind Speed Wind Dir Waves Ship Positions

Arsos M

Last reported at 2018-May-28 16:06 UTC. Time now 2018-Jun-22 15:25 UTC.
Position N 31°23' E 032°19'.
Warning: this ship's position is 24 days out of date.

Length 180 m; draft 10.7 m.

Type: Ship. MMSI: 538007316.

Date/timePositionNaut miles runAvg speedWind from/ knotsBaromVisibWave heightAir tempDewpointWater temp
2018-May-28 16:06N 31°23' E 032°19'0 0.5
2018-May-28 16:00N 31°23' E 032°19'2 3.7
2018-May-28 15:30N 31°24' E 032°18'  
2018-May-25 10:39N 35°50' E 015°05'212.0
2018-May-25 10:28N 35°50' E 015°02'611.8
2018-May-25 10:00N 35°52' E 014°56'510.4
2018-May-25 09:30N 35°53' E 014°50'2 4.7
2018-May-25 09:00N 35°55' E 014°47'0 0.0
2018-May-25 08:30N 35°55' E 014°47'0 0.1
2018-May-25 08:00N 35°55' E 014°47'0 0.0
2018-May-25 07:30N 35°55' E 014°47'0 0.0
2018-May-25 07:00N 35°55' E 014°47'0 0.0
2018-May-25 06:30N 35°55' E 014°47'0 0.1
2018-May-25 05:59N 35°55' E 014°47'0 0.0
2018-May-25 05:30N 35°55' E 014°47'0 0.0
2018-May-25 05:00N 35°55' E 014°47'0 0.1
2018-May-25 04:31N 35°55' E 014°47'0 0.1
2018-May-25 04:01N 35°55' E 014°47'0 0.0
2018-May-25 03:30N 35°55' E 014°47'0 0.1
2018-May-25 03:00N 35°55' E 014°47'0 0.1
2018-May-25 02:30N 35°55' E 014°47'0 0.1
2018-May-25 02:00N 35°55' E 014°47'3 6.1
2018-May-25 01:30N 35°58' E 014°47'3 6.4
2018-May-25 01:00N 36°01' E 014°46'1 1.5
2018-May-25 00:30N 36°01' E 014°47'0 1.0
2018-May-25 00:01N 36°00' E 014°47'0 0.8
2018-May-24 23:30N 35°60' E 014°47'1 1.3
2018-May-24 23:00N 35°59' E 014°47'1 1.7
2018-May-24 22:31N 35°59' E 014°46'0 0.5
2018-May-24 21:49N 35°59' E 014°46'0 0.4
2018-May-24 21:31N 35°59' E 014°46'0 0.4
2018-May-24 21:00N 35°59' E 014°47'0 0.5
2018-May-24 20:30N 35°60' E 014°47'0 0.5
2018-May-24 20:01N 35°60' E 014°47'0 0.5
2018-May-24 19:30N 36°00' E 014°47'0 0.5
2018-May-24 19:00N 36°00' E 014°47'0 0.5
2018-May-24 18:30N 36°01' E 014°47'0 0.5
2018-May-24 18:00N 36°01' E 014°47'0 0.3
2018-May-24 17:29N 36°01' E 014°48'0 0.7
2018-May-24 16:52N 36°01' E 014°48'1 2.6
2018-May-24 16:30N 36°00' E 014°49'1 1.3
2018-May-24 15:29N 35°59' E 014°49'0 0.4
2018-May-24 14:49N 35°59' E 014°49'0 0.4
2018-May-24 14:30N 35°60' E 014°49'0 0.3
2018-May-24 14:00N 35°60' E 014°49'0 0.3
2018-May-24 13:30N 35°60' E 014°49'4 0.8
2018-May-24 08:46N 36°02' E 014°53'0 0.5
2018-May-24 08:28N 36°02' E 014°53'2 0.3
2018-May-24 03:18N 36°02' E 014°51'0 0.3
2018-May-24 03:00N 36°02' E 014°51'0 0.3
2018-May-24 02:30N 36°02' E 014°51'3 0.6
2018-May-23 22:00N 36°05' E 014°49'1 2.7
2018-May-23 21:30N 36°06' E 014°48'3 5.9
2018-May-23 21:00N 36°08' E 014°47'3 5.6
2018-May-23 20:30N 36°11' E 014°46'1 2.0
2018-May-23 19:46N 36°11' E 014°44'1 3.3
2018-May-23 19:31N 36°10' E 014°44'2 4.4
2018-May-23 19:00N 36°08' E 014°44'2 4.3
2018-May-23 18:30N 36°06' E 014°45'2 4.4
2018-May-23 18:00N 36°04' E 014°46'3 6.1
2018-May-23 17:30N 36°01' E 014°46'3 6.6
2018-May-23 17:01N 35°58' E 014°44'4 5.6
2018-May-23 16:19N 35°54' E 014°41'0 0.5
2018-May-23 15:46N 35°54' E 014°41'1 1.1
2018-May-23 14:58N 35°55' E 014°40'1 2.1
2018-May-23 14:21N 35°56' E 014°40'2 6.3
2018-May-23 13:59N 35°57' E 014°42'43811.7
2018-May-22 00:25N 37°11' E 023°39'512.8
2018-May-22 00:00N 37°16' E 023°42'612.9
2018-May-21 23:31N 37°22' E 023°44'612.9
2018-May-21 23:01N 37°29' E 023°44'612.5
2018-May-21 22:31N 37°35' E 023°44'612.1
2018-May-21 22:01N 37°41' E 023°42'612.4
2018-May-21 21:31N 37°46' E 023°38'611.0
2018-May-21 21:01N 37°50' E 023°33'2 3.8
2018-May-21 20:30N 37°50' E 023°31'0 0.1
2018-May-21 20:00N 37°50' E 023°31'0 0.0
2018-May-21 19:30N 37°50' E 023°31'0 0.0
2018-May-21 19:00N 37°50' E 023°31'0 0.0
2018-May-21 18:30N 37°50' E 023°31'0 0.0
2018-May-21 18:00N 37°50' E 023°31'0 0.0
2018-May-21 17:30N 37°50' E 023°31'0 0.2
2018-May-21 16:57N 37°51' E 023°31'0 0.1
2018-May-21 16:30N 37°51' E 023°31'0 0.0
2018-May-21 16:00N 37°51' E 023°31'0 0.1
2018-May-21 15:27N 37°51' E 023°31'0 0.0
2018-May-21 15:00N 37°51' E 023°31'0 0.1
2018-May-21 14:30N 37°51' E 023°31'0 0.0
2018-May-21 14:00N 37°51' E 023°31'0 0.0
2018-May-21 13:30N 37°51' E 023°31'0 0.0
2018-May-21 13:00N 37°51' E 023°31'0 0.0
2018-May-21 12:30N 37°51' E 023°31'0 0.0
2018-May-21 12:00N 37°51' E 023°31'0 0.1
2018-May-21 11:30N 37°51' E 023°31'0 0.1
2018-May-21 11:00N 37°51' E 023°31'0 0.0
2018-May-21 10:30N 37°51' E 023°31'0 0.0
2018-May-21 10:00N 37°51' E 023°31'0 0.1
2018-May-21 09:30N 37°51' E 023°31'0 0.0
2018-May-21 09:00N 37°51' E 023°31'0 0.1
2018-May-21 08:30N 37°51' E 023°31'0 0.2
2018-May-21 08:00N 37°51' E 023°31'0 0.1
2018-May-21 07:30N 37°51' E 023°31'0 0.0
2018-May-21 05:00N 37°50' E 023°31'0 0.0
2018-May-21 04:30N 37°50' E 023°31'0 0.0
2018-May-21 04:00N 37°50' E 023°31'0 0.0
2018-May-21 03:30N 37°50' E 023°31'0 0.0
2018-May-21 03:00N 37°50' E 023°31'0 0.0
2018-May-21 02:30N 37°50' E 023°31'0 0.0
2018-May-21 02:00N 37°50' E 023°31'0 0.0
2018-May-21 01:30N 37°50' E 023°31'0 0.0
2018-May-21 01:00N 37°50' E 023°31'0 0.0
2018-May-21 00:30N 37°50' E 023°31'0 0.0
2018-May-21 00:00N 37°50' E 023°31'0 0.0
2018-May-20 23:30N 37°50' E 023°31'0 0.0
2018-May-20 23:00N 37°50' E 023°31'0 0.1
2018-May-20 22:30N 37°51' E 023°31'0 0.1
2018-May-20 22:00N 37°51' E 023°31'0 0.0
2018-May-20 21:30N 37°51' E 023°31'0 0.0
2018-May-20 21:00N 37°51' E 023°31'0 0.1
2018-May-20 20:30N 37°50' E 023°31'0 0.1
2018-May-20 20:00N 37°50' E 023°31'0 0.0
2018-May-20 19:30N 37°51' E 023°31'0 0.0
2018-May-20 19:00N 37°50' E 023°31'0 0.1
2018-May-20 18:30N 37°50' E 023°31'0 0.4
2018-May-20 18:00N 37°51' E 023°31'0 0.0
2018-May-20 17:30N 37°51' E 023°31'0 0.1
2018-May-20 17:00N 37°51' E 023°31'0 0.1
2018-May-20 16:30N 37°51' E 023°31'0 0.1
2018-May-20 16:00N 37°51' E 023°31'0 0.1
2018-May-20 15:30N 37°51' E 023°31'0 0.1
2018-May-20 15:00N 37°51' E 023°31'0 0.1
2018-May-20 14:30N 37°51' E 023°31'0 0.0
2018-May-20 14:00N 37°51' E 023°31'0 0.1
2018-May-20 13:30N 37°51' E 023°31'0 0.1
2018-May-20 13:00N 37°51' E 023°31'0 0.0
2018-May-20 12:30N 37°51' E 023°31'0 0.0
2018-May-20 12:00N 37°51' E 023°31'0 0.1
2018-May-20 11:30N 37°51' E 023°31'0 0.1
2018-May-20 11:00N 37°51' E 023°31'0 0.0
2018-May-20 10:30N 37°51' E 023°31'0 0.0
2018-May-20 10:00N 37°51' E 023°31'0 0.0
2018-May-20 09:30N 37°51' E 023°31'0 0.0
2018-May-20 09:00N 37°51' E 023°31'0 0.0
2018-May-20 08:30N 37°51' E 023°31'0 0.0
2018-May-20 08:00N 37°51' E 023°31'0 0.0
2018-May-20 07:30N 37°51' E 023°31'0 0.0
2018-May-20 07:00N 37°51' E 023°31'0 0.1
2018-May-20 06:30N 37°51' E 023°31'0 0.1
2018-May-20 06:00N 37°51' E 023°31'0 0.0
2018-May-20 05:30N 37°51' E 023°31'0 0.0
2018-May-20 05:00N 37°51' E 023°31'0 0.0
2018-May-20 04:30N 37°51' E 023°31'0 0.1
2018-May-20 04:00N 37°51' E 023°31'0 0.1
2018-May-20 03:30N 37°51' E 023°31'0 0.1
2018-May-20 03:00N 37°51' E 023°31'0 0.0
2018-May-20 02:30N 37°51' E 023°31'0 0.0
2018-May-20 02:00N 37°51' E 023°31'0 0.0
2018-May-20 01:30N 37°51' E 023°31'0 0.1
2018-May-20 01:00N 37°51' E 023°31'0 0.1
2018-May-20 00:30N 37°51' E 023°31'0 0.0
2018-May-20 00:00N 37°51' E 023°31'0 0.1
2018-May-19 23:30N 37°51' E 023°31'0 0.0
2018-May-19 23:00N 37°51' E 023°31'0 0.0
2018-May-19 22:30N 37°51' E 023°31'0 0.1
2018-May-19 22:00N 37°51' E 023°31'0 0.1
2018-May-19 21:30N 37°51' E 023°31'0 0.1
2018-May-19 21:00N 37°51' E 023°31'0 0.1
2018-May-19 20:30N 37°51' E 023°31'0 0.1
2018-May-19 20:00N 37°51' E 023°31'0 0.0
2018-May-19 19:30N 37°51' E 023°31'0 0.0
2018-May-19 19:00N 37°51' E 023°31'0 0.0
2018-May-19 18:30N 37°51' E 023°31'0 0.0
2018-May-19 18:00N 37°51' E 023°31'0 0.1
2018-May-19 17:30N 37°51' E 023°31'0 0.0
2018-May-19 17:00N 37°51' E 023°31'0 0.0
2018-May-19 16:30N 37°51' E 023°31'0 0.1
2018-May-19 16:00N 37°51' E 023°31'0 0.1
2018-May-19 15:30N 37°51' E 023°31'0 0.0
2018-May-19 15:00N 37°51' E 023°31'0 0.0
2018-May-19 14:30N 37°51' E 023°31'0 0.0
2018-May-19 14:00N 37°51' E 023°31'0 0.0
2018-May-19 13:30N 37°51' E 023°31'0 0.1
2018-May-19 13:00N 37°51' E 023°31'0 0.0
2018-May-19 12:30N 37°51' E 023°31'0 0.0
2018-May-19 12:00N 37°51' E 023°31'0 0.0
2018-May-19 11:30N 37°51' E 023°31'0 0.0
2018-May-19 11:00N 37°51' E 023°31'0 0.0
2018-May-19 10:30N 37°51' E 023°31'0 0.0
2018-May-19 10:00N 37°51' E 023°31'0 0.0
2018-May-19 09:30N 37°51' E 023°31'0 0.0
2018-May-19 09:00N 37°51' E 023°31'0 0.0
2018-May-19 08:30N 37°51' E 023°31'0 0.0
2018-May-19 08:00N 37°51' E 023°31'0 0.0
2018-May-19 07:30N 37°51' E 023°31'0 0.1
2018-May-19 07:00N 37°51' E 023°31'0 0.0
2018-May-19 06:30N 37°51' E 023°31'0 0.0
2018-May-19 06:00N 37°51' E 023°31'0 0.0
2018-May-19 05:30N 37°51' E 023°31'0 0.1
2018-May-19 05:00N 37°51' E 023°31'0 0.0
2018-May-19 04:27N 37°51' E 023°31'0 0.0
2018-May-19 04:00N 37°51' E 023°31'0 0.0
2018-May-19 03:30N 37°51' E 023°31'0 0.0
2018-May-19 03:00N 37°51' E 023°31'0 0.0
2018-May-19 02:30N 37°51' E 023°31'0 0.0
2018-May-19 02:00N 37°51' E 023°31'0 0.0
2018-May-19 01:30N 37°51' E 023°31'0 0.0
2018-May-19 01:00N 37°51' E 023°31'0 0.0
2018-May-19 00:30N 37°51' E 023°31'0 0.0
2018-May-19 00:00N 37°51' E 023°31'0 0.0
2018-May-18 23:30N 37°51' E 023°31'0 0.0
2018-May-18 23:00N 37°51' E 023°31'0 0.0
2018-May-18 22:30N 37°51' E 023°31'0 0.1
2018-May-18 22:00N 37°51' E 023°31'1 1.3
2018-May-18 21:30N 37°51' E 023°30'2 4.4
2018-May-18 21:00N 37°51' E 023°27'4 8.9
2018-May-18 20:30N 37°53' E 023°22'4 8.6
2018-May-18 20:00N 37°57' E 023°23'1 2.4
2018-May-18 19:28N 37°58' E 023°23'0 0.0
2018-May-18 18:58N 37°58' E 023°23'0 0.0
2018-May-18 18:28N 37°58' E 023°23'0 0.0
2018-May-18 17:58N 37°58' E 023°23'0 0.0
2018-May-18 17:28N 37°58' E 023°23'0 0.0
2018-May-18 16:58N 37°58' E 023°23'0 0.0
2018-May-18 16:25N 37°58' E 023°23'  

Dump ship's entire track history